sensor_id;sensor_type;location;lat;lon;timestamp;P1;durP1;ratioP1;P2;durP2;ratioP2
11348;SDS011;5729;43.570;27.826;2023-04-25T00:01:58;10.68;;;5.57;;
11348;SDS011;5729;43.570;27.826;2023-04-25T00:04:24;9.68;;;4.93;;
11348;SDS011;5729;43.570;27.826;2023-04-25T00:06:51;10.98;;;4.53;;
11348;SDS011;5729;43.570;27.826;2023-04-25T00:09:18;7.88;;;4.50;;
11348;SDS011;5729;43.570;27.826;2023-04-25T00:11:43;10.20;;;4.80;;
11348;SDS011;5729;43.570;27.826;2023-04-25T00:14:09;7.97;;;5.47;;
11348;SDS011;5729;43.570;27.826;2023-04-25T00:16:35;12.20;;;4.90;;
11348;SDS011;5729;43.570;27.826;2023-04-25T00:19:03;10.45;;;5.43;;
11348;SDS011;5729;43.570;27.826;2023-04-25T00:21:29;12.43;;;5.03;;
11348;SDS011;5729;43.570;27.826;2023-04-25T00:23:56;9.68;;;5.80;;
11348;SDS011;5729;43.570;27.826;2023-04-25T00:26:22;12.82;;;5.30;;
11348;SDS011;5729;43.570;27.826;2023-04-25T00:28:48;7.28;;;4.80;;
11348;SDS011;5729;43.570;27.826;2023-04-25T00:31:13;12.88;;;5.00;;
11348;SDS011;5729;43.570;27.826;2023-04-25T00:33:39;16.45;;;5.50;;
11348;SDS011;5729;43.570;27.826;2023-04-25T00:36:05;10.63;;;4.65;;
11348;SDS011;5729;43.570;27.826;2023-04-25T00:38:31;15.65;;;5.43;;
11348;SDS011;5729;43.570;27.826;2023-04-25T00:40:56;13.77;;;4.75;;
11348;SDS011;5729;43.570;27.826;2023-04-25T00:43:23;11.82;;;4.68;;
11348;SDS011;5729;43.570;27.826;2023-04-25T00:45:52;13.13;;;5.80;;
11348;SDS011;5729;43.570;27.826;2023-04-25T00:48:18;12.43;;;5.00;;
11348;SDS011;5729;43.570;27.826;2023-04-25T00:50:48;13.60;;;5.95;;
11348;SDS011;5729;43.570;27.826;2023-04-25T00:53:18;11.55;;;4.80;;
11348;SDS011;5729;43.570;27.826;2023-04-25T00:55:44;12.75;;;4.80;;
11348;SDS011;5729;43.570;27.826;2023-04-25T00:58:10;8.77;;;4.80;;
11348;SDS011;5729;43.570;27.826;2023-04-25T01:00:36;10.40;;;4.57;;
11348;SDS011;5729;43.570;27.826;2023-04-25T01:03:01;10.25;;;5.07;;
11348;SDS011;5729;43.570;27.826;2023-04-25T01:05:28;15.02;;;5.10;;
11348;SDS011;5729;43.570;27.826;2023-04-25T01:07:54;10.98;;;5.40;;
11348;SDS011;5729;43.570;27.826;2023-04-25T01:10:20;16.02;;;5.70;;
11348;SDS011;5729;43.570;27.826;2023-04-25T01:12:45;11.48;;;6.05;;
11348;SDS011;5729;43.570;27.826;2023-04-25T01:15:11;11.30;;;6.05;;
11348;SDS011;5729;43.570;27.826;2023-04-25T01:17:37;11.75;;;5.90;;
11348;SDS011;5729;43.570;27.826;2023-04-25T01:20:03;11.57;;;5.68;;
11348;SDS011;5729;43.570;27.826;2023-04-25T01:22:31;12.30;;;5.72;;
11348;SDS011;5729;43.570;27.826;2023-04-25T01:24:57;14.38;;;5.28;;
11348;SDS011;5729;43.570;27.826;2023-04-25T01:27:23;11.05;;;5.15;;
11348;SDS011;5729;43.570;27.826;2023-04-25T01:29:49;10.98;;;5.88;;
11348;SDS011;5729;43.570;27.826;2023-04-25T01:32:15;16.42;;;5.85;;
11348;SDS011;5729;43.570;27.826;2023-04-25T01:34:41;15.10;;;5.85;;
11348;SDS011;5729;43.570;27.826;2023-04-25T01:37:06;14.80;;;5.78;;
11348;SDS011;5729;43.570;27.826;2023-04-25T01:39:32;16.30;;;5.82;;
11348;SDS011;5729;43.570;27.826;2023-04-25T01:41:58;10.60;;;5.45;;
11348;SDS011;5729;43.570;27.826;2023-04-25T01:44:24;12.35;;;5.68;;
11348;SDS011;5729;43.570;27.826;2023-04-25T01:46:50;11.38;;;5.60;;
11348;SDS011;5729;43.570;27.826;2023-04-25T01:49:16;13.55;;;6.13;;
11348;SDS011;5729;43.570;27.826;2023-04-25T01:51:42;15.98;;;5.88;;
11348;SDS011;5729;43.570;27.826;2023-04-25T01:54:08;17.17;;;5.72;;
11348;SDS011;5729;43.570;27.826;2023-04-25T01:56:36;14.90;;;5.57;;
11348;SDS011;5729;43.570;27.826;2023-04-25T01:59:03;11.25;;;6.10;;
11348;SDS011;5729;43.570;27.826;2023-04-25T02:01:29;9.27;;;6.45;;
11348;SDS011;5729;43.570;27.826;2023-04-25T02:03:55;13.18;;;6.53;;
11348;SDS011;5729;43.570;27.826;2023-04-25T02:06:20;14.65;;;6.07;;
11348;SDS011;5729;43.570;27.826;2023-04-25T02:08:46;10.65;;;5.93;;
11348;SDS011;5729;43.570;27.826;2023-04-25T02:11:11;13.30;;;5.95;;
11348;SDS011;5729;43.570;27.826;2023-04-25T02:13:37;14.50;;;6.60;;
11348;SDS011;5729;43.570;27.826;2023-04-25T02:16:02;10.13;;;5.47;;
11348;SDS011;5729;43.570;27.826;2023-04-25T02:18:28;9.00;;;5.35;;
11348;SDS011;5729;43.570;27.826;2023-04-25T02:20:53;15.35;;;6.82;;
11348;SDS011;5729;43.570;27.826;2023-04-25T02:23:19;14.18;;;6.47;;
11348;SDS011;5729;43.570;27.826;2023-04-25T02:25:45;12.75;;;6.80;;
11348;SDS011;5729;43.570;27.826;2023-04-25T02:28:10;14.52;;;7.22;;
11348;SDS011;5729;43.570;27.826;2023-04-25T02:30:36;11.02;;;6.70;;
11348;SDS011;5729;43.570;27.826;2023-04-25T02:33:01;12.85;;;6.72;;
11348;SDS011;5729;43.570;27.826;2023-04-25T02:35:27;21.10;;;6.93;;
11348;SDS011;5729;43.570;27.826;2023-04-25T02:37:52;13.57;;;6.53;;
11348;SDS011;5729;43.570;27.826;2023-04-25T02:40:18;13.52;;;6.75;;
11348;SDS011;5729;43.570;27.826;2023-04-25T02:42:43;11.90;;;5.88;;
11348;SDS011;5729;43.570;27.826;2023-04-25T02:45:10;17.20;;;6.68;;
11348;SDS011;5729;43.570;27.826;2023-04-25T02:47:36;11.55;;;7.03;;
11348;SDS011;5729;43.570;27.826;2023-04-25T02:50:02;10.40;;;6.40;;
11348;SDS011;5729;43.570;27.826;2023-04-25T02:52:28;15.20;;;6.93;;
11348;SDS011;5729;43.570;27.826;2023-04-25T02:54:54;12.45;;;6.95;;
11348;SDS011;5729;43.570;27.826;2023-04-25T02:57:19;14.55;;;6.85;;
11348;SDS011;5729;43.570;27.826;2023-04-25T02:59:45;18.35;;;7.10;;
11348;SDS011;5729;43.570;27.826;2023-04-25T03:02:10;15.77;;;6.70;;
11348;SDS011;5729;43.570;27.826;2023-04-25T03:04:36;15.73;;;6.88;;
11348;SDS011;5729;43.570;27.826;2023-04-25T03:07:01;15.30;;;7.60;;
11348;SDS011;5729;43.570;27.826;2023-04-25T03:09:27;12.93;;;6.90;;
11348;SDS011;5729;43.570;27.826;2023-04-25T03:11:52;14.18;;;7.50;;
11348;SDS011;5729;43.570;27.826;2023-04-25T03:14:18;14.38;;;7.72;;
11348;SDS011;5729;43.570;27.826;2023-04-25T03:16:43;14.57;;;8.02;;
11348;SDS011;5729;43.570;27.826;2023-04-25T03:19:09;16.70;;;7.47;;
11348;SDS011;5729;43.570;27.826;2023-04-25T03:21:35;14.20;;;7.55;;
11348;SDS011;5729;43.570;27.826;2023-04-25T03:24:01;18.20;;;8.00;;
11348;SDS011;5729;43.570;27.826;2023-04-25T03:26:28;14.45;;;7.75;;
11348;SDS011;5729;43.570;27.826;2023-04-25T03:28:54;12.00;;;8.13;;
11348;SDS011;5729;43.570;27.826;2023-04-25T03:31:19;17.08;;;7.57;;
11348;SDS011;5729;43.570;27.826;2023-04-25T03:33:45;18.23;;;8.10;;
11348;SDS011;5729;43.570;27.826;2023-04-25T03:36:10;17.75;;;7.65;;
11348;SDS011;5729;43.570;27.826;2023-04-25T03:38:36;15.18;;;7.88;;
11348;SDS011;5729;43.570;27.826;2023-04-25T03:41:01;19.98;;;8.95;;
11348;SDS011;5729;43.570;27.826;2023-04-25T03:43:27;15.30;;;8.00;;
11348;SDS011;5729;43.570;27.826;2023-04-25T03:45:53;17.95;;;8.60;;
11348;SDS011;5729;43.570;27.826;2023-04-25T03:48:18;13.85;;;8.32;;
11348;SDS011;5729;43.570;27.826;2023-04-25T03:50:47;13.25;;;7.93;;
11348;SDS011;5729;43.570;27.826;2023-04-25T03:53:12;16.05;;;8.60;;
11348;SDS011;5729;43.570;27.826;2023-04-25T03:55:37;21.98;;;8.90;;
11348;SDS011;5729;43.570;27.826;2023-04-25T03:58:03;15.05;;;8.88;;
11348;SDS011;5729;43.570;27.826;2023-04-25T04:00:28;17.58;;;9.23;;
11348;SDS011;5729;43.570;27.826;2023-04-25T04:02:54;18.27;;;9.07;;
11348;SDS011;5729;43.570;27.826;2023-04-25T04:05:19;24.48;;;9.02;;
11348;SDS011;5729;43.570;27.826;2023-04-25T04:07:45;15.10;;;8.40;;
11348;SDS011;5729;43.570;27.826;2023-04-25T04:10:11;20.27;;;9.30;;
11348;SDS011;5729;43.570;27.826;2023-04-25T04:12:37;15.68;;;8.55;;
11348;SDS011;5729;43.570;27.826;2023-04-25T04:15:03;14.90;;;8.50;;
11348;SDS011;5729;43.570;27.826;2023-04-25T04:17:30;20.85;;;8.95;;
11348;SDS011;5729;43.570;27.826;2023-04-25T04:19:56;17.00;;;8.35;;
11348;SDS011;5729;43.570;27.826;2023-04-25T04:22:22;14.73;;;8.00;;
11348;SDS011;5729;43.570;27.826;2023-04-25T04:24:48;20.27;;;8.73;;
11348;SDS011;5729;43.570;27.826;2023-04-25T04:27:15;14.02;;;9.25;;
11348;SDS011;5729;43.570;27.826;2023-04-25T04:29:47;17.30;;;8.13;;
11348;SDS011;5729;43.570;27.826;2023-04-25T04:32:13;20.10;;;7.85;;
11348;SDS011;5729;43.570;27.826;2023-04-25T04:34:39;22.17;;;8.32;;
11348;SDS011;5729;43.570;27.826;2023-04-25T04:37:04;20.08;;;7.78;;
11348;SDS011;5729;43.570;27.826;2023-04-25T04:39:32;16.52;;;7.53;;
11348;SDS011;5729;43.570;27.826;2023-04-25T04:41:58;24.40;;;8.68;;
11348;SDS011;5729;43.570;27.826;2023-04-25T04:44:24;20.10;;;7.68;;
11348;SDS011;5729;43.570;27.826;2023-04-25T04:46:50;17.60;;;9.68;;
11348;SDS011;5729;43.570;27.826;2023-04-25T04:49:16;13.52;;;7.78;;
11348;SDS011;5729;43.570;27.826;2023-04-25T04:51:42;14.32;;;7.53;;
11348;SDS011;5729;43.570;27.826;2023-04-25T04:54:09;12.57;;;7.35;;
11348;SDS011;5729;43.570;27.826;2023-04-25T04:56:34;13.48;;;7.30;;
11348;SDS011;5729;43.570;27.826;2023-04-25T04:59:00;14.27;;;6.95;;
11348;SDS011;5729;43.570;27.826;2023-04-25T05:01:27;11.82;;;6.07;;
11348;SDS011;5729;43.570;27.826;2023-04-25T05:03:54;11.68;;;6.32;;
11348;SDS011;5729;43.570;27.826;2023-04-25T05:06:25;11.40;;;6.88;;
11348;SDS011;5729;43.570;27.826;2023-04-25T05:08:51;11.15;;;6.40;;
11348;SDS011;5729;43.570;27.826;2023-04-25T05:11:17;13.52;;;6.32;;
11348;SDS011;5729;43.570;27.826;2023-04-25T05:13:43;9.98;;;5.45;;
11348;SDS011;5729;43.570;27.826;2023-04-25T05:16:08;12.05;;;5.50;;
11348;SDS011;5729;43.570;27.826;2023-04-25T05:18:34;10.38;;;4.97;;
11348;SDS011;5729;43.570;27.826;2023-04-25T05:21:00;9.57;;;5.35;;
11348;SDS011;5729;43.570;27.826;2023-04-25T05:23:25;9.45;;;4.60;;
11348;SDS011;5729;43.570;27.826;2023-04-25T05:25:52;13.77;;;5.03;;
11348;SDS011;5729;43.570;27.826;2023-04-25T05:28:18;10.02;;;5.13;;
11348;SDS011;5729;43.570;27.826;2023-04-25T05:30:44;18.08;;;4.70;;
11348;SDS011;5729;43.570;27.826;2023-04-25T05:33:09;9.35;;;5.07;;
11348;SDS011;5729;43.570;27.826;2023-04-25T05:35:34;13.85;;;5.75;;
11348;SDS011;5729;43.570;27.826;2023-04-25T05:38:00;7.35;;;4.30;;
11348;SDS011;5729;43.570;27.826;2023-04-25T05:40:25;8.45;;;4.90;;
11348;SDS011;5729;43.570;27.826;2023-04-25T05:42:51;13.82;;;4.45;;
11348;SDS011;5729;43.570;27.826;2023-04-25T05:45:16;8.35;;;4.28;;
11348;SDS011;5729;43.570;27.826;2023-04-25T05:47:42;5.70;;;3.97;;
11348;SDS011;5729;43.570;27.826;2023-04-25T05:50:08;10.63;;;5.32;;
11348;SDS011;5729;43.570;27.826;2023-04-25T05:52:33;22.10;;;5.78;;
11348;SDS011;5729;43.570;27.826;2023-04-25T05:54:59;13.73;;;4.78;;
11348;SDS011;5729;43.570;27.826;2023-04-25T05:57:25;13.85;;;4.38;;
11348;SDS011;5729;43.570;27.826;2023-04-25T05:59:52;12.52;;;4.38;;
11348;SDS011;5729;43.570;27.826;2023-04-25T06:02:18;10.23;;;4.63;;
11348;SDS011;5729;43.570;27.826;2023-04-25T06:04:45;11.10;;;4.18;;
11348;SDS011;5729;43.570;27.826;2023-04-25T06:07:11;23.35;;;9.15;;
11348;SDS011;5729;43.570;27.826;2023-04-25T06:09:36;6.50;;;3.92;;
11348;SDS011;5729;43.570;27.826;2023-04-25T06:12:04;8.25;;;4.72;;
11348;SDS011;5729;43.570;27.826;2023-04-25T06:14:30;7.75;;;4.30;;
11348;SDS011;5729;43.570;27.826;2023-04-25T06:16:55;8.50;;;3.72;;
11348;SDS011;5729;43.570;27.826;2023-04-25T06:19:21;22.80;;;6.22;;
11348;SDS011;5729;43.570;27.826;2023-04-25T06:21:46;12.50;;;3.40;;
11348;SDS011;5729;43.570;27.826;2023-04-25T06:24:12;7.03;;;3.90;;
11348;SDS011;5729;43.570;27.826;2023-04-25T06:26:37;6.82;;;3.38;;
11348;SDS011;5729;43.570;27.826;2023-04-25T06:29:02;13.07;;;4.35;;
11348;SDS011;5729;43.570;27.826;2023-04-25T06:31:28;6.72;;;3.67;;
11348;SDS011;5729;43.570;27.826;2023-04-25T06:33:54;4.90;;;3.40;;
11348;SDS011;5729;43.570;27.826;2023-04-25T06:36:20;6.82;;;3.67;;
11348;SDS011;5729;43.570;27.826;2023-04-25T06:38:50;6.07;;;3.28;;
11348;SDS011;5729;43.570;27.826;2023-04-25T06:41:16;5.85;;;3.60;;
11348;SDS011;5729;43.570;27.826;2023-04-25T06:43:42;7.45;;;3.60;;
11348;SDS011;5729;43.570;27.826;2023-04-25T06:46:07;13.20;;;3.65;;
11348;SDS011;5729;43.570;27.826;2023-04-25T06:48:32;9.93;;;3.38;;
11348;SDS011;5729;43.570;27.826;2023-04-25T06:50:58;6.22;;;3.33;;
11348;SDS011;5729;43.570;27.826;2023-04-25T06:53:23;9.73;;;3.28;;
11348;SDS011;5729;43.570;27.826;2023-04-25T06:55:49;7.30;;;3.30;;
11348;SDS011;5729;43.570;27.826;2023-04-25T06:58:14;6.32;;;2.80;;
11348;SDS011;5729;43.570;27.826;2023-04-25T07:00:40;8.55;;;3.42;;
11348;SDS011;5729;43.570;27.826;2023-04-25T07:03:05;6.28;;;3.25;;
11348;SDS011;5729;43.570;27.826;2023-04-25T07:05:31;9.20;;;3.88;;
11348;SDS011;5729;43.570;27.826;2023-04-25T07:07:56;11.93;;;2.83;;
11348;SDS011;5729;43.570;27.826;2023-04-25T07:10:22;5.57;;;3.05;;
11348;SDS011;5729;43.570;27.826;2023-04-25T07:12:47;4.05;;;3.03;;
11348;SDS011;5729;43.570;27.826;2023-04-25T07:15:13;4.35;;;2.83;;
11348;SDS011;5729;43.570;27.826;2023-04-25T07:17:38;5.20;;;3.10;;
11348;SDS011;5729;43.570;27.826;2023-04-25T07:20:04;12.32;;;3.40;;
11348;SDS011;5729;43.570;27.826;2023-04-25T07:22:31;14.50;;;3.72;;
11348;SDS011;5729;43.570;27.826;2023-04-25T07:24:57;3.53;;;2.97;;
11348;SDS011;5729;43.570;27.826;2023-04-25T07:27:22;4.93;;;3.17;;
11348;SDS011;5729;43.570;27.826;2023-04-25T07:29:48;6.72;;;3.97;;
11348;SDS011;5729;43.570;27.826;2023-04-25T07:32:13;8.50;;;3.17;;
11348;SDS011;5729;43.570;27.826;2023-04-25T07:34:39;8.85;;;3.05;;
11348;SDS011;5729;43.570;27.826;2023-04-25T07:37:04;11.68;;;3.63;;
11348;SDS011;5729;43.570;27.826;2023-04-25T07:39:30;7.57;;;3.70;;
11348;SDS011;5729;43.570;27.826;2023-04-25T07:41:56;4.88;;;2.80;;
11348;SDS011;5729;43.570;27.826;2023-04-25T07:44:23;7.45;;;3.00;;
11348;SDS011;5729;43.570;27.826;2023-04-25T07:46:49;7.07;;;3.35;;
11348;SDS011;5729;43.570;27.826;2023-04-25T07:49:15;8.65;;;3.45;;
11348;SDS011;5729;43.570;27.826;2023-04-25T07:51:40;6.97;;;3.22;;
11348;SDS011;5729;43.570;27.826;2023-04-25T07:54:08;7.30;;;3.65;;
11348;SDS011;5729;43.570;27.826;2023-04-25T07:56:34;5.88;;;3.17;;
11348;SDS011;5729;43.570;27.826;2023-04-25T07:59:00;5.70;;;3.38;;
11348;SDS011;5729;43.570;27.826;2023-04-25T08:01:25;7.72;;;3.20;;
11348;SDS011;5729;43.570;27.826;2023-04-25T08:03:52;4.13;;;2.90;;
11348;SDS011;5729;43.570;27.826;2023-04-25T08:06:17;4.43;;;3.30;;
11348;SDS011;5729;43.570;27.826;2023-04-25T08:08:43;7.72;;;3.10;;
11348;SDS011;5729;43.570;27.826;2023-04-25T08:11:09;4.60;;;3.33;;
11348;SDS011;5729;43.570;27.826;2023-04-25T08:13:34;4.95;;;2.70;;
11348;SDS011;5729;43.570;27.826;2023-04-25T08:16:00;4.80;;;2.85;;
11348;SDS011;5729;43.570;27.826;2023-04-25T08:18:25;14.73;;;3.38;;
11348;SDS011;5729;43.570;27.826;2023-04-25T08:20:51;3.65;;;2.75;;
11348;SDS011;5729;43.570;27.826;2023-04-25T08:23:16;9.13;;;2.72;;
11348;SDS011;5729;43.570;27.826;2023-04-25T08:25:42;6.05;;;2.55;;
11348;SDS011;5729;43.570;27.826;2023-04-25T08:28:07;6.88;;;2.67;;
11348;SDS011;5729;43.570;27.826;2023-04-25T08:30:33;8.82;;;2.80;;
11348;SDS011;5729;43.570;27.826;2023-04-25T08:32:58;7.40;;;3.90;;
11348;SDS011;5729;43.570;27.826;2023-04-25T08:35:23;3.05;;;2.35;;
11348;SDS011;5729;43.570;27.826;2023-04-25T08:37:49;13.45;;;2.78;;
11348;SDS011;5729;43.570;27.826;2023-04-25T08:40:15;3.45;;;2.30;;
11348;SDS011;5729;43.570;27.826;2023-04-25T08:42:41;5.60;;;2.88;;
11348;SDS011;5729;43.570;27.826;2023-04-25T08:45:08;5.47;;;2.80;;
11348;SDS011;5729;43.570;27.826;2023-04-25T08:47:34;6.57;;;3.58;;
11348;SDS011;5729;43.570;27.826;2023-04-25T08:50:02;5.22;;;2.80;;
11348;SDS011;5729;43.570;27.826;2023-04-25T08:52:30;5.22;;;3.25;;
11348;SDS011;5729;43.570;27.826;2023-04-25T08:55:02;4.22;;;2.58;;
11348;SDS011;5729;43.570;27.826;2023-04-25T08:57:29;5.90;;;3.17;;
11348;SDS011;5729;43.570;27.826;2023-04-25T08:59:57;8.15;;;3.05;;
11348;SDS011;5729;43.570;27.826;2023-04-25T09:02:23;2.97;;;2.42;;
11348;SDS011;5729;43.570;27.826;2023-04-25T09:04:49;4.53;;;2.50;;
11348;SDS011;5729;43.570;27.826;2023-04-25T09:07:15;9.57;;;2.97;;
11348;SDS011;5729;43.570;27.826;2023-04-25T09:09:43;7.93;;;3.17;;
11348;SDS011;5729;43.570;27.826;2023-04-25T09:12:09;5.88;;;2.97;;
11348;SDS011;5729;43.570;27.826;2023-04-25T09:14:35;4.97;;;3.13;;
11348;SDS011;5729;43.570;27.826;2023-04-25T09:17:01;4.03;;;2.80;;
11348;SDS011;5729;43.570;27.826;2023-04-25T09:19:33;2.75;;;2.45;;
11348;SDS011;5729;43.570;27.826;2023-04-25T09:22:01;7.85;;;3.38;;
11348;SDS011;5729;43.570;27.826;2023-04-25T09:24:31;4.25;;;3.40;;
11348;SDS011;5729;43.570;27.826;2023-04-25T09:26:58;4.35;;;2.95;;
11348;SDS011;5729;43.570;27.826;2023-04-25T09:29:34;7.63;;;3.55;;
11348;SDS011;5729;43.570;27.826;2023-04-25T09:32:12;3.75;;;3.03;;
11348;SDS011;5729;43.570;27.826;2023-04-25T09:34:40;5.18;;;3.28;;
11348;SDS011;5729;43.570;27.826;2023-04-25T09:37:10;2.83;;;2.50;;
11348;SDS011;5729;43.570;27.826;2023-04-25T09:39:39;4.88;;;3.13;;
11348;SDS011;5729;43.570;27.826;2023-04-25T09:42:05;5.43;;;2.95;;
11348;SDS011;5729;43.570;27.826;2023-04-25T09:44:30;5.38;;;2.92;;
11348;SDS011;5729;43.570;27.826;2023-04-25T09:46:56;8.43;;;3.38;;
11348;SDS011;5729;43.570;27.826;2023-04-25T09:49:22;7.00;;;3.13;;
11348;SDS011;5729;43.570;27.826;2023-04-25T09:51:54;6.95;;;3.17;;
11348;SDS011;5729;43.570;27.826;2023-04-25T09:54:25;3.20;;;2.90;;
11348;SDS011;5729;43.570;27.826;2023-04-25T09:56:52;9.38;;;2.80;;
11348;SDS011;5729;43.570;27.826;2023-04-25T09:59:21;5.75;;;2.80;;
11348;SDS011;5729;43.570;27.826;2023-04-25T10:01:50;6.50;;;3.00;;
11348;SDS011;5729;43.570;27.826;2023-04-25T10:04:22;3.45;;;2.85;;
11348;SDS011;5729;43.570;27.826;2023-04-25T10:06:49;6.38;;;3.00;;
11348;SDS011;5729;43.570;27.826;2023-04-25T10:09:18;2.90;;;2.28;;
11348;SDS011;5729;43.570;27.826;2023-04-25T10:11:46;3.28;;;2.25;;
11348;SDS011;5729;43.570;27.826;2023-04-25T10:14:16;5.43;;;2.67;;
11348;SDS011;5729;43.570;27.826;2023-04-25T10:16:42;8.68;;;2.85;;
11348;SDS011;5729;43.570;27.826;2023-04-25T10:19:08;3.13;;;2.22;;
11348;SDS011;5729;43.570;27.826;2023-04-25T10:21:35;3.08;;;2.28;;
11348;SDS011;5729;43.570;27.826;2023-04-25T10:24:15;3.40;;;3.08;;
11348;SDS011;5729;43.570;27.826;2023-04-25T10:26:41;8.73;;;3.55;;
11348;SDS011;5729;43.570;27.826;2023-04-25T10:29:07;4.47;;;3.55;;
11348;SDS011;5729;43.570;27.826;2023-04-25T10:31:34;6.97;;;3.20;;
11348;SDS011;5729;43.570;27.826;2023-04-25T10:34:10;4.82;;;3.22;;
11348;SDS011;5729;43.570;27.826;2023-04-25T10:36:35;7.75;;;3.78;;
11348;SDS011;5729;43.570;27.826;2023-04-25T10:39:03;5.50;;;3.45;;
11348;SDS011;5729;43.570;27.826;2023-04-25T10:41:32;6.20;;;3.22;;
11348;SDS011;5729;43.570;27.826;2023-04-25T10:44:11;10.15;;;3.50;;
11348;SDS011;5729;43.570;27.826;2023-04-25T10:46:37;10.30;;;3.88;;
11348;SDS011;5729;43.570;27.826;2023-04-25T10:49:03;7.22;;;3.33;;
11348;SDS011;5729;43.570;27.826;2023-04-25T10:53:56;7.43;;;3.40;;
11348;SDS011;5729;43.570;27.826;2023-04-25T10:56:26;4.88;;;2.97;;
11348;SDS011;5729;43.570;27.826;2023-04-25T10:58:52;6.95;;;3.28;;
11348;SDS011;5729;43.570;27.826;2023-04-25T11:01:29;11.40;;;3.28;;
11348;SDS011;5729;43.570;27.826;2023-04-25T11:09:35;7.88;;;3.17;;
11348;SDS011;5729;43.570;27.826;2023-04-25T11:12:03;4.53;;;3.42;;
11348;SDS011;5729;43.570;27.826;2023-04-25T11:14:29;7.30;;;2.70;;
11348;SDS011;5729;43.570;27.826;2023-04-25T11:16:56;4.82;;;2.72;;
11348;SDS011;5729;43.570;27.826;2023-04-25T11:19:23;4.68;;;3.00;;
11348;SDS011;5729;43.570;27.826;2023-04-25T11:21:49;8.20;;;2.60;;
11348;SDS011;5729;43.570;27.826;2023-04-25T11:24:17;5.65;;;2.72;;
11348;SDS011;5729;43.570;27.826;2023-04-25T11:26:43;4.13;;;2.92;;
11348;SDS011;5729;43.570;27.826;2023-04-25T11:29:12;5.63;;;2.92;;
11348;SDS011;5729;43.570;27.826;2023-04-25T11:31:38;3.22;;;2.60;;
11348;SDS011;5729;43.570;27.826;2023-04-25T11:34:03;4.28;;;2.35;;
11348;SDS011;5729;43.570;27.826;2023-04-25T11:36:29;4.18;;;2.25;;
11348;SDS011;5729;43.570;27.826;2023-04-25T11:38:56;2.70;;;2.50;;
11348;SDS011;5729;43.570;27.826;2023-04-25T11:41:22;8.90;;;2.67;;
11348;SDS011;5729;43.570;27.826;2023-04-25T11:43:47;2.78;;;2.33;;
11348;SDS011;5729;43.570;27.826;2023-04-25T11:46:16;4.82;;;2.67;;
11348;SDS011;5729;43.570;27.826;2023-04-25T11:48:41;3.92;;;2.55;;
11348;SDS011;5729;43.570;27.826;2023-04-25T11:51:08;3.33;;;2.15;;
11348;SDS011;5729;43.570;27.826;2023-04-25T11:53:34;2.95;;;2.10;;
11348;SDS011;5729;43.570;27.826;2023-04-25T11:56:00;5.63;;;2.20;;
11348;SDS011;5729;43.570;27.826;2023-04-25T11:58:26;4.60;;;2.50;;
11348;SDS011;5729;43.570;27.826;2023-04-25T12:00:52;4.70;;;2.17;;
11348;SDS011;5729;43.570;27.826;2023-04-25T12:03:18;3.38;;;2.38;;
11348;SDS011;5729;43.570;27.826;2023-04-25T12:05:44;4.60;;;2.28;;
11348;SDS011;5729;43.570;27.826;2023-04-25T12:08:11;4.35;;;2.17;;
11348;SDS011;5729;43.570;27.826;2023-04-25T12:10:38;3.05;;;2.22;;
11348;SDS011;5729;43.570;27.826;2023-04-25T12:13:21;4.90;;;2.00;;
11348;SDS011;5729;43.570;27.826;2023-04-25T12:15:48;2.63;;;2.40;;
11348;SDS011;5729;43.570;27.826;2023-04-25T12:18:14;3.95;;;2.30;;
11348;SDS011;5729;43.570;27.826;2023-04-25T12:20:41;7.90;;;2.10;;
11348;SDS011;5729;43.570;27.826;2023-04-25T12:23:06;2.28;;;2.05;;
11348;SDS011;5729;43.570;27.826;2023-04-25T12:25:39;1.92;;;1.70;;
11348;SDS011;5729;43.570;27.826;2023-04-25T12:33:30;2.08;;;1.88;;
11348;SDS011;5729;43.570;27.826;2023-04-25T12:36:00;2.95;;;2.20;;
11348;SDS011;5729;43.570;27.826;2023-04-25T12:38:35;3.42;;;1.95;;
11348;SDS011;5729;43.570;27.826;2023-04-25T12:41:02;5.45;;;2.30;;
11348;SDS011;5729;43.570;27.826;2023-04-25T12:43:27;3.88;;;2.15;;
11348;SDS011;5729;43.570;27.826;2023-04-25T12:45:53;5.18;;;2.22;;
11348;SDS011;5729;43.570;27.826;2023-04-25T12:48:20;3.47;;;2.10;;
11348;SDS011;5729;43.570;27.826;2023-04-25T12:50:46;3.05;;;2.17;;
11348;SDS011;5729;43.570;27.826;2023-04-25T12:53:16;4.43;;;2.42;;
11348;SDS011;5729;43.570;27.826;2023-04-25T12:55:42;4.15;;;1.95;;
11348;SDS011;5729;43.570;27.826;2023-04-25T12:58:10;3.35;;;2.60;;
11348;SDS011;5729;43.570;27.826;2023-04-25T13:00:36;5.40;;;3.40;;
11348;SDS011;5729;43.570;27.826;2023-04-25T13:03:02;4.63;;;3.35;;
11348;SDS011;5729;43.570;27.826;2023-04-25T13:05:28;4.38;;;3.30;;
11348;SDS011;5729;43.570;27.826;2023-04-25T13:07:55;7.85;;;3.63;;
11348;SDS011;5729;43.570;27.826;2023-04-25T13:10:20;5.88;;;4.00;;
11348;SDS011;5729;43.570;27.826;2023-04-25T13:12:46;4.38;;;3.25;;
11348;SDS011;5729;43.570;27.826;2023-04-25T13:15:11;11.93;;;3.63;;
11348;SDS011;5729;43.570;27.826;2023-04-25T13:17:37;8.52;;;3.85;;
11348;SDS011;5729;43.570;27.826;2023-04-25T13:20:04;4.40;;;3.38;;
11348;SDS011;5729;43.570;27.826;2023-04-25T13:22:34;13.75;;;4.15;;
11348;SDS011;5729;43.570;27.826;2023-04-25T13:25:02;6.50;;;3.80;;
11348;SDS011;5729;43.570;27.826;2023-04-25T13:27:28;6.65;;;4.07;;
11348;SDS011;5729;43.570;27.826;2023-04-25T13:29:54;5.20;;;2.80;;
11348;SDS011;5729;43.570;27.826;2023-04-25T13:32:19;4.35;;;3.35;;
11348;SDS011;5729;43.570;27.826;2023-04-25T13:34:45;8.95;;;3.10;;
11348;SDS011;5729;43.570;27.826;2023-04-25T13:37:10;4.93;;;2.88;;
11348;SDS011;5729;43.570;27.826;2023-04-25T13:39:36;5.20;;;2.85;;
11348;SDS011;5729;43.570;27.826;2023-04-25T13:42:01;4.75;;;3.10;;
11348;SDS011;5729;43.570;27.826;2023-04-25T13:44:27;4.43;;;2.45;;
11348;SDS011;5729;43.570;27.826;2023-04-25T13:46:52;2.75;;;2.08;;
11348;SDS011;5729;43.570;27.826;2023-04-25T13:49:18;6.78;;;3.03;;
11348;SDS011;5729;43.570;27.826;2023-04-25T13:51:43;10.50;;;3.67;;
11348;SDS011;5729;43.570;27.826;2023-04-25T13:54:08;7.68;;;3.58;;
11348;SDS011;5729;43.570;27.826;2023-04-25T13:56:34;7.90;;;3.80;;
11348;SDS011;5729;43.570;27.826;2023-04-25T13:58:59;15.35;;;4.47;;
11348;SDS011;5729;43.570;27.826;2023-04-25T14:01:25;18.67;;;7.20;;
11348;SDS011;5729;43.570;27.826;2023-04-25T14:03:52;11.55;;;4.72;;
11348;SDS011;5729;43.570;27.826;2023-04-25T14:06:17;8.45;;;5.32;;
11348;SDS011;5729;43.570;27.826;2023-04-25T14:08:47;8.50;;;5.35;;
11348;SDS011;5729;43.570;27.826;2023-04-25T14:11:14;7.10;;;5.50;;
11348;SDS011;5729;43.570;27.826;2023-04-25T14:13:39;11.60;;;6.25;;
11348;SDS011;5729;43.570;27.826;2023-04-25T14:16:04;9.25;;;6.13;;
11348;SDS011;5729;43.570;27.826;2023-04-25T14:18:30;10.40;;;7.88;;
11348;SDS011;5729;43.570;27.826;2023-04-25T14:20:55;9.65;;;8.15;;
11348;SDS011;5729;43.570;27.826;2023-04-25T14:23:21;10.50;;;7.57;;
11348;SDS011;5729;43.570;27.826;2023-04-25T14:25:46;10.75;;;7.35;;
11348;SDS011;5729;43.570;27.826;2023-04-25T14:28:12;13.55;;;7.85;;
11348;SDS011;5729;43.570;27.826;2023-04-25T14:30:38;8.90;;;7.30;;
11348;SDS011;5729;43.570;27.826;2023-04-25T14:33:03;7.80;;;6.97;;
11348;SDS011;5729;43.570;27.826;2023-04-25T14:35:29;17.40;;;8.43;;
11348;SDS011;5729;43.570;27.826;2023-04-25T14:37:54;7.40;;;6.53;;
11348;SDS011;5729;43.570;27.826;2023-04-25T14:40:20;9.40;;;6.53;;
11348;SDS011;5729;43.570;27.826;2023-04-25T14:42:48;14.43;;;10.02;;
11348;SDS011;5729;43.570;27.826;2023-04-25T14:45:13;10.18;;;6.78;;
11348;SDS011;5729;43.570;27.826;2023-04-25T14:47:39;8.10;;;5.63;;
11348;SDS011;5729;43.570;27.826;2023-04-25T14:50:05;7.22;;;5.68;;